createdAt,value
2023-04-11T00:01:57.757Z,7.06
2023-04-11T00:04:25.870Z,6.50
2023-04-11T00:06:53.850Z,6.35
2023-04-11T00:09:23.071Z,6.60
2023-04-11T00:11:50.998Z,6.67
2023-04-11T00:14:18.994Z,6.44
2023-04-11T00:16:49.769Z,6.54
2023-04-11T00:19:17.873Z,6.51
2023-04-11T00:21:46.393Z,6.51
2023-04-11T00:24:14.209Z,6.48
2023-04-11T00:26:43.492Z,6.49
2023-04-11T00:29:11.316Z,6.60
2023-04-11T00:31:39.192Z,6.00
2023-04-11T00:34:07.332Z,6.20
2023-04-11T00:36:35.261Z,6.66
2023-04-11T00:39:03.238Z,6.27
2023-04-11T00:41:31.211Z,6.05
2023-04-11T00:44:00.442Z,6.01
2023-04-11T00:46:28.673Z,5.90
2023-04-11T00:48:57.745Z,5.94
2023-04-11T00:51:26.909Z,5.93
2023-04-11T00:53:55.562Z,5.79
2023-04-11T00:56:23.650Z,5.86
2023-04-11T00:58:51.708Z,6.03
2023-04-11T01:01:25.014Z,6.00
2023-04-11T01:03:53.803Z,5.53
2023-04-11T01:06:24.315Z,5.78
2023-04-11T01:08:52.375Z,5.85
2023-04-11T01:11:20.786Z,5.43
2023-04-11T01:13:50.833Z,5.91
2023-04-11T01:16:21.424Z,5.70
2023-04-11T01:18:49.921Z,5.67
2023-04-11T01:21:20.507Z,5.71
2023-04-11T01:23:52.765Z,5.83
2023-04-11T01:26:21.143Z,5.74
2023-04-11T01:28:49.010Z,5.94
2023-04-11T01:31:16.873Z,5.87
2023-04-11T01:33:44.940Z,5.67
2023-04-11T01:36:13.082Z,5.39
2023-04-11T01:38:41.107Z,5.61
2023-04-11T01:41:11.848Z,5.49
2023-04-11T01:43:40.095Z,5.63
2023-04-11T01:46:08.977Z,5.69
2023-04-11T01:48:36.956Z,5.46
2023-04-11T01:51:05.937Z,5.60
2023-04-11T01:53:33.922Z,5.71
2023-04-11T01:56:01.814Z,5.18
2023-04-11T01:58:31.101Z,5.52
2023-04-11T02:00:58.973Z,5.42
2023-04-11T02:03:26.987Z,5.44
2023-04-11T02:05:54.919Z,5.03
2023-04-11T02:08:22.764Z,5.26
2023-04-11T02:10:50.672Z,5.29
2023-04-11T02:13:18.600Z,5.57
2023-04-11T02:15:47.991Z,5.48
2023-04-11T02:18:16.162Z,5.19
2023-04-11T02:20:51.487Z,5.53
2023-04-11T02:23:19.335Z,5.05
2023-04-11T02:25:47.159Z,5.14
2023-04-11T02:28:15.003Z,4.91
2023-04-11T02:30:47.336Z,5.24
2023-04-11T02:33:15.317Z,4.96
2023-04-11T02:35:43.311Z,4.95
2023-04-11T02:38:11.221Z,4.93
2023-04-11T02:40:39.129Z,5.02
2023-04-11T02:43:07.039Z,5.01
2023-04-11T02:45:34.955Z,5.05
2023-04-11T02:48:08.154Z,5.38
2023-04-11T02:50:36.137Z,5.11
2023-04-11T02:53:03.988Z,5.00
2023-04-11T02:55:31.842Z,5.42
2023-04-11T03:00:27.625Z,4.72
2023-04-11T03:02:56.558Z,5.04
2023-04-11T03:05:26.075Z,5.01
2023-04-11T03:07:53.966Z,5.13
2023-04-11T03:10:21.844Z,5.02
2023-04-11T03:12:49.701Z,5.20
2023-04-11T03:15:17.634Z,5.33
2023-04-11T03:17:45.659Z,5.26
2023-04-11T03:20:13.768Z,4.82
2023-04-11T03:22:43.515Z,5.12
2023-04-11T03:25:11.392Z,5.22
2023-04-11T03:27:39.337Z,5.09
2023-04-11T03:30:08.467Z,5.25
2023-04-11T03:32:36.561Z,5.77
2023-04-11T03:35:04.614Z,5.36
2023-04-11T03:37:32.500Z,5.45
2023-04-11T03:40:01.708Z,5.40
2023-04-11T03:42:29.616Z,5.12
2023-04-11T03:44:57.537Z,5.38
2023-04-11T03:47:28.198Z,5.02
2023-04-11T03:49:56.264Z,5.03
2023-04-11T03:52:24.153Z,5.05
2023-04-11T03:54:52.065Z,5.00
2023-04-11T03:57:21.278Z,4.72
2023-04-11T03:59:49.112Z,5.09
2023-04-11T04:02:17.123Z,5.16
2023-04-11T04:04:47.323Z,4.96
2023-04-11T04:07:18.077Z,5.07
2023-04-11T04:09:49.129Z,5.13
2023-04-11T04:12:17.760Z,5.41
2023-04-11T04:14:47.112Z,5.26
2023-04-11T04:17:16.658Z,5.42
2023-04-11T04:19:45.223Z,6.05
2023-04-11T04:22:13.604Z,6.47
2023-04-11T04:24:45.984Z,5.76
2023-04-11T04:27:14.216Z,5.32
2023-04-11T04:29:50.843Z,5.04
2023-04-11T04:32:30.765Z,4.75
2023-04-11T04:35:01.597Z,4.72
2023-04-11T04:37:30.040Z,5.21
2023-04-11T04:40:07.813Z,5.12
2023-04-11T04:42:36.847Z,4.61
2023-04-11T04:45:05.205Z,4.48
2023-04-11T04:47:36.495Z,4.15
2023-04-11T04:50:05.032Z,4.23
2023-04-11T04:52:32.908Z,4.16
2023-04-11T04:55:01.373Z,4.73
2023-04-11T04:57:31.989Z,4.93
2023-04-11T05:00:00.772Z,4.67
2023-04-11T05:02:28.920Z,5.24
2023-04-11T05:05:03.998Z,5.21
2023-04-11T05:07:31.999Z,6.48
2023-04-11T05:09:59.847Z,6.71
2023-04-11T05:12:28.005Z,6.58
2023-04-11T05:14:56.866Z,5.95
2023-04-11T05:17:25.514Z,6.23
2023-04-11T05:19:53.631Z,5.51
2023-04-11T05:22:22.843Z,5.51
2023-04-11T05:24:50.678Z,5.16
2023-04-11T05:27:19.290Z,6.91
2023-04-11T05:29:47.373Z,8.35
2023-04-11T05:32:15.381Z,7.64
2023-04-11T05:34:54.292Z,5.82
2023-04-11T05:37:26.349Z,5.64
2023-04-11T05:39:56.322Z,4.03
2023-04-11T05:42:24.259Z,3.26
2023-04-11T05:44:52.143Z,3.04
2023-04-11T05:47:20.059Z,2.83
2023-04-11T05:49:48.765Z,3.13
2023-04-11T05:52:16.804Z,3.08
2023-04-11T05:54:46.019Z,2.94
2023-04-11T05:57:13.859Z,3.19
2023-04-11T05:59:41.694Z,3.92
2023-04-11T06:02:09.800Z,3.75
2023-04-11T06:04:37.975Z,3.41
2023-04-11T06:07:06.004Z,2.87
2023-04-11T06:09:34.276Z,2.39
2023-04-11T06:12:03.690Z,2.17
2023-04-11T06:14:32.164Z,2.30
2023-04-11T06:17:00.475Z,2.14
2023-04-11T06:19:28.379Z,1.88
2023-04-11T06:21:56.596Z,1.86
2023-04-11T06:24:36.782Z,1.97
2023-04-11T06:27:06.558Z,2.79
2023-04-11T06:29:34.412Z,2.51
2023-04-11T06:32:02.287Z,2.08
2023-04-11T06:34:30.306Z,1.94
2023-04-11T06:36:58.159Z,2.03
2023-04-11T06:39:26.212Z,1.46
2023-04-11T06:41:54.088Z,0.96
2023-04-11T06:44:23.419Z,0.77
2023-04-11T06:46:51.337Z,0.63
2023-04-11T06:49:19.477Z,0.63
2023-04-11T06:51:50.074Z,0.61
2023-04-11T06:54:18.584Z,0.56
2023-04-11T06:56:47.349Z,0.64
2023-04-11T06:59:15.711Z,0.85
2023-04-11T07:01:45.013Z,0.81
2023-04-11T07:04:13.191Z,0.78
2023-04-11T07:06:41.206Z,0.75
2023-04-11T07:09:10.424Z,0.69
2023-04-11T07:11:38.594Z,0.68
2023-04-11T07:14:06.783Z,0.63
2023-04-11T07:16:34.776Z,0.60
2023-04-11T07:19:04.303Z,0.68
2023-04-11T07:21:32.622Z,0.74
2023-04-11T07:24:01.493Z,0.68
2023-04-11T07:26:32.732Z,0.59
2023-04-11T07:29:00.974Z,0.60
2023-04-11T07:31:28.981Z,0.79
2023-04-11T07:33:57.167Z,1.00
2023-04-11T07:36:26.550Z,0.90
2023-04-11T07:38:54.436Z,0.76
2023-04-11T07:41:22.294Z,0.81
2023-04-11T07:43:50.217Z,0.97
2023-04-11T07:46:18.081Z,0.92
2023-04-11T07:48:45.952Z,0.87
2023-04-11T07:51:13.851Z,0.91
2023-04-11T07:53:43.080Z,1.15
2023-04-11T07:56:12.111Z,1.30
2023-04-11T07:58:40.012Z,1.56
2023-04-11T08:01:09.432Z,1.70
2023-04-11T08:03:37.552Z,1.67
2023-04-11T08:06:05.798Z,2.06
2023-04-11T08:08:33.636Z,1.63
2023-04-11T08:11:02.859Z,1.59
2023-04-11T08:13:30.724Z,1.50
2023-04-11T08:15:58.593Z,1.65
2023-04-11T08:18:26.526Z,1.48
2023-04-11T08:20:54.412Z,1.46
2023-04-11T08:23:22.739Z,1.37
2023-04-11T08:25:50.638Z,1.71
2023-04-11T08:28:19.864Z,1.62
2023-04-11T08:30:47.746Z,1.91
2023-04-11T08:33:15.841Z,2.13
2023-04-11T08:35:43.743Z,2.40
2023-04-11T08:38:11.805Z,2.41
2023-04-11T08:40:39.890Z,2.06
2023-04-11T08:43:12.195Z,2.05
2023-04-11T08:45:43.055Z,1.99
2023-04-11T08:48:12.336Z,2.31
2023-04-11T08:50:41.449Z,3.49
2023-04-11T08:53:10.085Z,5.14
2023-04-11T08:55:45.879Z,7.34
2023-04-11T08:58:14.058Z,2.81
2023-04-11T09:00:44.313Z,2.20
2023-04-11T09:03:14.370Z,2.21
2023-04-11T09:05:45.991Z,2.15
2023-04-11T09:08:15.663Z,2.15
2023-04-11T09:10:46.224Z,2.25
2023-04-11T09:13:23.118Z,2.15
2023-04-11T09:16:05.899Z,2.32
2023-04-11T09:18:35.075Z,2.77
2023-04-11T09:21:06.385Z,2.08
2023-04-11T09:23:34.933Z,2.03
2023-04-11T09:26:03.582Z,1.71
2023-04-11T09:28:42.617Z,2.03
2023-04-11T09:31:13.571Z,2.22
2023-04-11T09:33:54.841Z,1.74
2023-04-11T09:36:25.421Z,2.44
2023-04-11T09:39:00.138Z,2.46
2023-04-11T09:41:32.481Z,2.97
2023-04-11T09:44:01.744Z,2.93
2023-04-11T09:46:31.572Z,2.79
2023-04-11T09:49:01.684Z,2.53
2023-04-11T09:51:36.337Z,2.88
2023-04-11T09:54:06.476Z,2.62
2023-04-11T09:56:35.548Z,2.20
2023-04-11T09:59:05.308Z,2.05
2023-04-11T10:01:35.013Z,2.77
2023-04-11T10:04:04.497Z,2.82
2023-04-11T10:06:38.759Z,2.45
2023-04-11T10:09:14.989Z,2.45
2023-04-11T10:11:44.358Z,2.77
2023-04-11T10:14:43.088Z,2.74
2023-04-11T10:17:21.355Z,2.34
2023-04-11T10:19:51.815Z,2.92
2023-04-11T10:22:55.834Z,2.84
2023-04-11T10:25:25.354Z,3.72
2023-04-11T10:28:00.520Z,3.63
2023-04-11T10:31:00.451Z,2.41
2023-04-11T10:33:29.763Z,2.33
2023-04-11T10:35:59.205Z,2.62
2023-04-11T10:38:47.210Z,3.74
2023-04-11T10:41:21.010Z,3.36
2023-04-11T10:43:49.491Z,4.22
2023-04-11T10:46:23.207Z,3.98
2023-04-11T10:48:59.866Z,2.65
2023-04-11T10:51:32.132Z,2.75
2023-04-11T10:54:02.135Z,2.16
2023-04-11T10:56:55.354Z,3.04
2023-04-11T10:59:58.020Z,2.34
2023-04-11T11:02:39.000Z,2.42
2023-04-11T11:05:19.715Z,2.09
2023-04-11T11:07:49.105Z,1.95
2023-04-11T11:10:18.479Z,1.87
2023-04-11T11:12:56.082Z,1.74
2023-04-11T11:15:24.066Z,1.80
2023-04-11T11:17:52.096Z,1.97
2023-04-11T11:20:21.463Z,2.05
2023-04-11T11:23:05.339Z,1.92
2023-04-11T11:25:33.609Z,1.77
2023-04-11T11:28:06.769Z,1.89
2023-04-11T11:30:36.182Z,1.65
2023-04-11T11:33:18.297Z,1.63
2023-04-11T11:35:56.272Z,1.89
2023-04-11T11:38:29.339Z,1.94
2023-04-11T11:40:58.580Z,2.07
2023-04-11T11:43:27.757Z,2.05
2023-04-11T11:46:16.389Z,1.66
2023-04-11T11:48:59.411Z,1.92
2023-04-11T11:51:39.918Z,1.76
2023-04-11T11:54:09.771Z,1.81
2023-04-11T11:56:38.380Z,1.71
2023-04-11T11:59:07.270Z,1.69
2023-04-11T12:01:36.552Z,1.77
2023-04-11T12:04:07.651Z,1.91
2023-04-11T12:06:45.851Z,1.92
2023-04-11T12:09:13.934Z,1.75
2023-04-11T12:11:43.446Z,1.90
2023-04-11T12:14:12.436Z,1.72
2023-04-11T12:16:40.613Z,2.00
2023-04-11T12:19:10.177Z,1.75
2023-04-11T12:21:39.517Z,1.88
2023-04-11T12:24:08.433Z,1.87
2023-04-11T12:26:38.300Z,1.73
2023-04-11T12:29:08.300Z,1.80
2023-04-11T12:31:36.171Z,1.72
2023-04-11T12:34:04.110Z,1.91
2023-04-11T12:39:03.024Z,1.86
2023-04-11T12:41:32.643Z,1.79
2023-04-11T12:44:02.411Z,1.58
2023-04-11T12:46:30.431Z,1.72
2023-04-11T12:48:58.656Z,1.63
2023-04-11T12:51:27.556Z,1.68
2023-04-11T12:53:55.478Z,1.73
2023-04-11T12:56:24.946Z,2.02
2023-04-11T12:58:52.858Z,1.82
2023-04-11T13:01:21.230Z,2.00
2023-04-11T13:03:49.269Z,1.66
2023-04-11T13:06:17.248Z,1.80
2023-04-11T13:08:45.358Z,1.74
2023-04-11T13:11:13.247Z,1.78
2023-04-11T13:13:42.534Z,1.59
2023-04-11T13:16:11.862Z,1.46
2023-04-11T13:18:39.755Z,1.59
2023-04-11T13:21:08.251Z,1.81
2023-04-11T13:23:36.492Z,1.95
2023-04-11T13:26:04.362Z,1.89
2023-04-11T13:28:34.786Z,1.70
2023-04-11T13:31:03.982Z,1.88
2023-04-11T13:33:31.880Z,1.98
2023-04-11T13:35:59.965Z,1.88
2023-04-11T13:38:28.260Z,1.61
2023-04-11T13:40:56.561Z,1.61
2023-04-11T13:43:24.436Z,1.66
2023-04-11T13:45:52.374Z,1.77
2023-04-11T13:48:21.679Z,1.67
2023-04-11T13:50:49.545Z,1.67
2023-04-11T13:53:17.458Z,2.07
2023-04-11T13:55:48.343Z,2.63
2023-04-11T13:58:16.495Z,1.95
2023-04-11T14:00:45.466Z,1.81
2023-04-11T14:03:13.589Z,1.73
2023-04-11T14:05:42.961Z,1.82
2023-04-11T14:08:10.795Z,1.74
2023-04-11T14:10:38.733Z,1.65
2023-04-11T14:13:06.652Z,1.90
2023-04-11T14:15:34.812Z,1.91
2023-04-11T14:18:02.760Z,2.11
2023-04-11T14:20:30.766Z,2.24
2023-04-11T14:23:01.063Z,2.19
2023-04-11T14:25:29.029Z,1.86
2023-04-11T14:27:56.895Z,1.92
2023-04-11T14:30:24.915Z,1.94
2023-04-11T14:32:52.816Z,1.84
2023-04-11T14:35:20.738Z,2.41
2023-04-11T14:37:49.417Z,3.15
2023-04-11T14:40:18.972Z,2.05
2023-04-11T14:42:46.851Z,1.67
2023-04-11T14:45:14.836Z,1.70
2023-04-11T14:47:43.433Z,1.72
2023-04-11T14:50:11.994Z,1.78
2023-04-11T14:52:39.912Z,1.88
2023-04-11T14:55:09.201Z,1.63
2023-04-11T14:57:47.016Z,3.48
2023-04-11T15:00:19.738Z,8.63
2023-04-11T15:02:49.695Z,10.62
2023-04-11T15:05:19.969Z,5.93
2023-04-11T15:07:50.471Z,2.58
2023-04-11T15:10:21.678Z,3.47
2023-04-11T15:12:53.109Z,1.94
2023-04-11T15:15:22.806Z,2.30
2023-04-11T15:18:24.715Z,2.65
2023-04-11T15:20:56.971Z,2.17
2023-04-11T15:23:29.020Z,1.84
2023-04-11T15:25:59.401Z,1.93
2023-04-11T15:28:35.368Z,1.95
2023-04-11T15:31:05.886Z,2.39
2023-04-11T15:33:35.207Z,1.99
2023-04-11T15:36:03.840Z,4.98
2023-04-11T15:38:32.096Z,2.33
2023-04-11T15:41:00.738Z,4.92
2023-04-11T15:43:32.322Z,2.08
2023-04-11T15:46:02.796Z,2.35
2023-04-11T15:48:31.329Z,2.21
2023-04-11T15:51:00.273Z,2.14
2023-04-11T15:53:28.677Z,2.19
2023-04-11T15:55:57.072Z,2.12
2023-04-11T15:58:26.805Z,1.86
2023-04-11T16:01:01.065Z,1.63
2023-04-11T16:03:33.018Z,1.90
2023-04-11T16:06:09.653Z,2.13
2023-04-11T16:08:38.267Z,1.86
2023-04-11T16:11:07.345Z,2.30
2023-04-11T16:13:36.101Z,2.19
2023-04-11T16:16:06.943Z,2.20
2023-04-11T16:18:40.881Z,2.12
2023-04-11T16:21:15.976Z,2.16
2023-04-11T16:23:47.118Z,1.95
2023-04-11T16:26:19.142Z,2.07
2023-04-11T16:28:47.918Z,1.86
2023-04-11T16:31:22.407Z,2.30
2023-04-11T16:33:53.138Z,2.29
2023-04-11T16:36:57.538Z,1.60
2023-04-11T16:42:53.365Z,4.15
2023-04-11T16:45:22.561Z,3.74
2023-04-11T16:47:52.741Z,2.53
2023-04-11T16:50:23.040Z,2.37
2023-04-11T16:52:51.421Z,1.85
2023-04-11T16:55:31.857Z,2.06
2023-04-11T16:58:03.704Z,2.25
2023-04-11T17:00:51.444Z,2.33
2023-04-11T17:10:59.600Z,2.59
2023-04-11T17:20:33.797Z,3.44
2023-04-11T17:23:38.924Z,3.44
2023-04-11T17:26:10.998Z,2.47
2023-04-11T17:28:42.566Z,2.31
2023-04-11T17:31:19.113Z,2.32
2023-04-11T17:33:50.248Z,2.57
2023-04-11T17:36:24.549Z,2.47
2023-04-11T17:38:55.136Z,2.63
2023-04-11T17:41:29.687Z,3.61
2023-04-11T17:43:58.469Z,4.14
2023-04-11T17:46:27.592Z,4.18
2023-04-11T17:48:56.164Z,4.04
2023-04-11T17:51:28.279Z,3.79
2023-04-11T17:54:13.092Z,3.87
2023-04-11T17:56:52.081Z,3.35
2023-04-11T18:00:56.584Z,3.37
2023-04-11T18:03:58.406Z,3.19
2023-04-11T18:07:16.172Z,3.60
2023-04-11T18:09:49.156Z,4.01
2023-04-11T18:12:21.514Z,4.54
2023-04-11T18:15:07.539Z,5.02
2023-04-11T18:17:36.968Z,4.57
2023-04-11T18:20:09.223Z,4.54
2023-04-11T18:22:39.634Z,4.79
2023-04-11T18:25:10.676Z,6.78
2023-04-11T18:27:40.645Z,6.67
2023-04-11T18:30:13.409Z,5.75
2023-04-11T18:32:47.338Z,5.67
2023-04-11T18:35:18.503Z,5.08
2023-04-11T18:37:47.922Z,4.94
2023-04-11T18:40:19.845Z,4.82
2023-04-11T18:42:52.197Z,4.99
2023-04-11T18:45:22.760Z,4.78
2023-04-11T18:47:52.578Z,4.66
2023-04-11T18:50:21.902Z,4.65
2023-04-11T18:52:55.411Z,5.67
2023-04-11T18:55:40.582Z,5.54
2023-04-11T18:58:19.060Z,5.19
2023-04-11T19:01:25.754Z,5.65
2023-04-11T19:08:18.913Z,5.13
2023-04-11T19:10:49.391Z,5.17
2023-04-11T19:24:41.802Z,5.45
2023-04-11T19:27:40.662Z,4.69
2023-04-11T19:30:50.173Z,5.44
2023-04-11T19:33:50.762Z,5.96
2023-04-11T19:36:14.013Z,4.36
2023-04-11T19:38:43.156Z,4.35
2023-04-11T19:41:15.066Z,4.29
2023-04-11T19:43:49.329Z,4.34
2023-04-11T19:46:20.294Z,3.88
2023-04-11T19:49:04.888Z,4.93
2023-04-11T19:51:44.832Z,5.33
2023-04-11T19:57:08.850Z,3.78
2023-04-11T19:59:37.472Z,3.28
2023-04-11T20:02:08.147Z,3.08
2023-04-11T20:05:07.624Z,3.72
2023-04-11T20:07:40.755Z,5.95
2023-04-11T20:10:12.171Z,6.36
2023-04-11T20:12:44.770Z,3.48
2023-04-11T20:15:16.206Z,3.03
2023-04-11T20:17:46.437Z,3.02
2023-04-11T20:20:19.720Z,3.20
2023-04-11T20:23:06.424Z,2.91
2023-04-11T20:25:36.108Z,3.23
2023-04-11T20:28:08.333Z,3.19
2023-04-11T20:30:45.250Z,2.99
2023-04-11T20:33:24.256Z,2.76
2023-04-11T20:36:13.554Z,3.01
2023-04-11T20:38:56.054Z,3.43
2023-04-11T20:41:26.888Z,4.85
2023-04-11T20:44:01.766Z,3.23
2023-04-11T20:46:32.615Z,2.88
2023-04-11T20:49:07.610Z,2.96
2023-04-11T20:51:37.812Z,2.82
2023-04-11T20:54:08.897Z,2.83
2023-04-11T20:56:39.727Z,2.81
2023-04-11T20:59:21.186Z,2.74
2023-04-11T21:01:59.578Z,2.57
2023-04-11T21:04:28.391Z,2.66
2023-04-11T21:06:57.168Z,2.65
2023-04-11T21:09:27.770Z,2.74
2023-04-11T21:11:56.787Z,2.63
2023-04-11T21:14:25.907Z,2.74
2023-04-11T21:16:54.463Z,2.68
2023-04-11T21:19:22.792Z,2.53
2023-04-11T21:21:51.436Z,2.29
2023-04-11T21:24:20.069Z,2.41
2023-04-11T21:26:57.038Z,2.46
2023-04-11T21:29:25.901Z,2.45
2023-04-11T21:31:54.459Z,2.30
2023-04-11T21:34:23.429Z,2.57
2023-04-11T21:36:52.895Z,2.35
2023-04-11T21:39:21.659Z,2.30
2023-04-11T21:41:52.682Z,2.37
2023-04-11T21:44:21.515Z,2.24
2023-04-11T21:46:50.042Z,2.17
2023-04-11T21:49:18.755Z,2.42
2023-04-11T21:51:49.325Z,2.26
2023-04-11T21:54:17.669Z,2.32
2023-04-11T21:56:47.544Z,2.23
2023-04-11T21:59:18.935Z,2.08
2023-04-11T22:01:48.251Z,2.09
2023-04-11T22:04:18.726Z,2.00
2023-04-11T22:06:47.900Z,1.97
2023-04-11T22:09:21.133Z,2.11
2023-04-11T22:11:49.726Z,2.09
2023-04-11T22:14:20.767Z,2.08
2023-04-11T22:16:52.428Z,1.74
2023-04-11T22:19:21.355Z,2.32
2023-04-11T22:21:57.994Z,2.07
2023-04-11T22:24:30.568Z,2.17
2023-04-11T22:27:04.827Z,2.19
2023-04-11T22:29:35.488Z,1.97
2023-04-11T22:32:04.297Z,2.20
2023-04-11T22:34:33.189Z,2.64
2023-04-11T22:37:02.346Z,3.01
2023-04-11T22:39:31.071Z,2.98
2023-04-11T22:42:02.784Z,3.23
2023-04-11T22:44:33.508Z,3.09
2023-04-11T22:47:07.210Z,2.98
2023-04-11T22:49:40.723Z,2.93
2023-04-11T22:52:14.548Z,2.96
2023-04-11T22:54:44.268Z,2.86
2023-04-11T22:57:15.034Z,2.83
2023-04-11T22:59:43.601Z,2.58
2023-04-11T23:02:15.388Z,2.47
2023-04-11T23:04:44.549Z,2.84
2023-04-11T23:07:13.548Z,2.95
2023-04-11T23:09:42.743Z,2.84
2023-04-11T23:12:11.252Z,3.02
2023-04-11T23:14:40.172Z,2.79
2023-04-11T23:17:12.480Z,2.85
2023-04-11T23:19:43.461Z,2.77
2023-04-11T23:22:12.412Z,2.75
2023-04-11T23:24:41.099Z,2.83
2023-04-11T23:27:10.639Z,2.66
2023-04-11T23:29:39.389Z,2.70
2023-04-11T23:32:08.215Z,2.86
2023-04-11T23:34:36.786Z,2.80
2023-04-11T23:37:08.556Z,2.91
2023-04-11T23:39:36.857Z,2.93
2023-04-11T23:42:05.852Z,2.93
2023-04-11T23:44:34.324Z,3.05
2023-04-11T23:47:03.111Z,3.05
2023-04-11T23:49:32.079Z,3.13
2023-04-11T23:52:03.549Z,3.29
2023-04-11T23:54:36.006Z,3.40
2023-04-11T23:57:04.529Z,3.60
2023-04-11T23:59:35.217Z,3.56
